Time;durP1;ratioP1;P1;durP2;ratioP2;P2;SDS_P1;SDS_P2;PMS_P1;PMS_P2;Temp;Humidity;BMP_temperature;BMP_pressure;BME280_temperature;BME280_humidity;BME280_pressure;Samples;Min_cycle;Max_cycle;Signal;HPM_P1;HPM_P2
2022/12/19 00:01:42;;;;;;;52.28;26.08;;;;;;;-0.30;93.52;101850.59;4948866;28;20583;-71
2022/12/19 00:04:14;;;;;;;52.50;26.88;;;;;;;-0.28;93.53;101842.91;4948197;28;20051;-71
2022/12/19 00:06:41;;;;;;;50.88;26.55;;;;;;;-0.25;93.54;101830.91;4949329;28;20131;-71
2022/12/19 00:09:11;;;;;;;51.30;25.60;;;;;;;-0.26;93.41;101816.19;4950809;28;20114;-70
2022/12/19 00:11:39;;;;;;;53.85;26.88;;;;;;;-0.25;93.24;101828.31;4951597;28;20040;-71
2022/12/19 00:14:08;;;;;;;51.53;25.98;;;;;;;-0.21;93.59;101831.88;4951561;28;20099;-70
2022/12/19 00:16:35;;;;;;;52.35;26.95;;;;;;;-0.19;93.54;101827.63;4950827;28;20047;-70
2022/12/19 00:19:02;;;;;;;52.38;26.35;;;;;;;-0.16;93.71;101832.91;4950782;28;20056;-70
2022/12/19 00:21:33;;;;;;;55.13;26.10;;;;;;;-0.15;93.77;101829.44;4950650;28;20556;-72
2022/12/19 00:24:07;;;;;;;54.42;26.85;;;;;;;-0.12;93.92;101824.38;4950448;28;20044;-71
2022/12/19 00:26:49;;;;;;;57.33;28.00;;;;;;;-0.13;94.09;101835.56;4951067;28;20499;-71
2022/12/19 00:29:16;;;;;;;53.25;27.00;;;;;;;-0.12;94.12;101832.16;4948891;28;20051;-70
2022/12/19 00:31:43;;;;;;;57.45;26.50;;;;;;;-0.08;94.36;101822.75;4951566;28;20103;-71
2022/12/19 00:34:14;;;;;;;54.60;27.38;;;;;;;-0.08;94.43;101834.00;4950115;28;20047;-72
2022/12/19 00:36:42;;;;;;;54.67;27.85;;;;;;;-0.09;94.56;101826.16;4950847;28;20530;-72
2022/12/19 00:39:10;;;;;;;57.75;28.00;;;;;;;-0.06;94.80;101831.44;4948872;28;20044;-72
2022/12/19 00:41:39;;;;;;;59.47;28.92;;;;;;;-0.09;94.89;101819.28;4951110;28;20426;-71
2022/12/19 00:44:12;;;;;;;59.05;28.08;;;;;;;-0.12;94.84;101805.34;4947930;28;20052;-72
2022/12/19 00:46:40;;;;;;;61.33;29.63;;;;;;;-0.15;94.99;101798.34;4933114;28;20150;-71
2022/12/19 00:49:07;;;;;;;62.42;28.98;;;;;;;-0.12;95.31;101792.41;4950765;28;20055;-70
2022/12/19 00:51:37;;;;;;;59.67;28.15;;;;;;;-0.12;95.65;101785.47;4951298;28;20080;-70
2022/12/19 00:54:08;;;;;;;58.28;27.30;;;;;;;-0.14;95.87;101775.91;4940756;28;20059;-71
2022/12/19 00:56:35;;;;;;;60.33;28.40;;;;;;;-0.15;96.14;101754.28;4950851;28;20039;-71
2022/12/19 00:59:06;;;;;;;57.75;28.20;;;;;;;-0.14;96.34;101729.25;4954188;28;20814;-72
2022/12/19 01:01:38;;;;;;;67.80;29.75;;;;;;;-0.17;96.49;101738.69;4952841;28;20096;-72
2022/12/19 01:04:11;;;;;;;63.22;29.92;;;;;;;-0.11;96.72;101737.13;4954588;28;20815;-72
2022/12/19 01:06:57;;;;;;;60.95;28.45;;;;;;;-0.11;96.99;101717.25;4952922;28;20048;-72
2022/12/19 01:09:32;;;;;;;58.08;28.52;;;;;;;-0.08;97.22;101708.66;4954223;28;20047;-71
2022/12/19 01:14:55;;;;;;;62.55;29.80;;;;;;;-0.02;97.81;101722.69;4952820;28;20570;-71
2022/12/19 01:17:33;;;;;;;61.97;29.15;;;;;;;0.03;97.79;101701.22;4935730;28;20052;-71
2022/12/19 01:20:14;;;;;;;57.78;28.02;;;;;;;0.06;97.90;101715.13;4952339;28;20052;-71
2022/12/19 01:22:44;;;;;;;67.15;29.15;;;;;;;0.07;97.97;101713.41;4954045;28;20044;-70
2022/12/19 01:25:13;;;;;;;62.40;29.48;;;;;;;0.08;98.04;101708.28;4943715;28;20040;-70
2022/12/19 01:27:40;;;;;;;59.80;28.50;;;;;;;0.10;98.29;101718.69;4947863;28;20058;-70
2022/12/19 01:30:09;;;;;;;64.15;29.88;;;;;;;0.14;98.31;101726.56;4953799;28;20056;-70
2022/12/19 01:32:37;;;;;;;61.30;28.15;;;;;;;0.17;98.43;101712.81;4952207;28;20063;-70
2022/12/19 01:35:05;;;;;;;64.15;29.98;;;;;;;0.22;98.57;101724.19;4952457;28;20437;-71
2022/12/19 01:37:42;;;;;;;65.50;30.35;;;;;;;0.27;98.59;101716.53;4934798;28;20055;-70
2022/12/19 01:40:12;;;;;;;62.78;29.88;;;;;;;0.30;98.30;101706.25;4953172;28;20059;-70
2022/12/19 01:42:39;;;;;;;64.72;29.98;;;;;;;0.32;98.60;101693.31;4952697;28;20039;-69
2022/12/19 01:45:06;;;;;;;61.33;28.85;;;;;;;0.36;98.60;101692.53;4953297;28;22177;-69
2022/12/19 01:48:16;;;;;;;58.72;28.20;;;;;;;0.39;98.48;101687.44;4953862;28;20044;-69
2022/12/19 01:50:57;;;;;;;60.85;27.77;;;;;;;0.39;98.36;101679.66;4948697;28;20047;-68
2022/12/19 01:53:51;;;;;;;;;;;;;;;0.38;98.35;101681.38;4954606;28;20047;-69
2022/12/19 01:56:27;;;;;;;60.63;28.63;;;;;;;0.41;98.29;101697.00;4952601;28;20087;-68
2022/12/19 01:59:03;;;;;;;57.25;28.60;;;;;;;0.43;98.18;101697.06;4938569;28;20561;-69
2022/12/19 02:01:39;;;;;;;63.75;28.70;;;;;;;0.44;98.12;101688.44;4930709;28;20108;-69
2022/12/19 02:04:19;;;;;;;56.53;28.55;;;;;;;0.46;98.14;101691.91;4953971;28;20130;-70
2022/12/19 02:06:48;;;;;;;56.80;27.15;;;;;;;0.48;98.07;101674.69;4950870;28;20426;-71
2022/12/19 02:09:17;;;;;;;55.17;27.20;;;;;;;0.51;97.99;101686.88;4943683;28;20044;-71
2022/12/19 02:11:45;;;;;;;52.88;26.48;;;;;;;0.52;97.98;101676.53;4935199;28;20099;-71
2022/12/19 02:14:12;;;;;;;51.70;26.13;;;;;;;0.55;98.12;101674.03;4934711;28;20047;-71
2022/12/19 02:17:09;;;;;;;55.60;27.70;;;;;;;0.60;98.00;101663.75;4952575;28;20055;-71
2022/12/19 02:20:24;;;;;;;52.78;26.90;;;;;;;0.60;97.90;101663.75;4952084;28;20052;-70
2022/12/19 02:23:40;;;;;;;51.40;25.50;;;;;;;0.64;97.69;101649.13;4948887;28;20506;-71
2022/12/19 02:26:36;;;;;;;56.47;26.73;;;;;;;0.63;97.75;101645.63;4948423;28;20461;-71
2022/12/19 02:29:33;;;;;;;58.70;26.90;;;;;;;0.68;97.78;101650.94;4934152;28;20056;-71
2022/12/19 02:32:32;;;;;;;54.97;26.55;;;;;;;0.70;97.97;101649.25;4942440;28;20044;-71
2022/12/19 02:35:29;;;;;;;56.15;25.42;;;;;;;0.72;97.80;101640.66;4942391;28;20043;-70
2022/12/19 02:38:27;;;;;;;56.20;25.85;;;;;;;0.75;98.00;101634.69;4951588;28;20036;-69
2022/12/19 02:41:04;;;;;;;51.60;26.00;;;;;;;0.77;98.02;101639.06;4935453;28;20066;-69
2022/12/19 02:43:38;;;;;;;52.40;26.08;;;;;;;0.83;98.20;101640.91;4942522;28;20048;-69
2022/12/19 02:46:10;;;;;;;54.65;26.17;;;;;;;0.86;98.09;101630.59;4933988;28;22151;-69
2022/12/19 02:48:40;;;;;;;52.60;26.80;;;;;;;0.89;98.14;101622.00;4944191;28;20047;-69
2022/12/19 02:51:08;;;;;;;55.03;25.58;;;;;;;0.93;98.08;101624.69;4934083;28;20337;-70
2022/12/19 02:53:37;;;;;;;50.47;27.23;;;;;;;0.97;98.09;101628.25;4951682;28;20139;-71
2022/12/19 02:56:22;;;;;;;51.25;26.88;;;;;;;0.98;98.11;101622.19;4933172;28;20815;-70
2022/12/19 02:59:33;;;;;;;51.72;25.08;;;;;;;1.01;97.99;101623.97;4936110;28;20520;-71
2022/12/19 03:02:14;;;;;;;51.05;25.35;;;;;;;1.01;98.18;101616.19;4933291;28;20066;-71
2022/12/19 03:05:12;;;;;;;52.97;25.58;;;;;;;1.05;98.19;101600.72;4938348;28;20054;-71
2022/12/19 03:08:07;;;;;;;54.22;25.77;;;;;;;1.08;98.07;101603.38;4934376;28;20047;-70
2022/12/19 03:10:48;;;;;;;51.55;24.60;;;;;;;1.11;98.23;101599.09;4940705;28;20511;-69
2022/12/19 03:13:23;;;;;;;52.10;25.65;;;;;;;1.13;98.11;101611.25;4934054;28;20174;-69
2022/12/19 03:15:52;;;;;;;50.28;24.98;;;;;;;1.16;98.02;101610.44;4924888;28;20510;-69
2022/12/19 03:18:20;;;;;;;52.25;24.13;;;;;;;1.17;97.97;101605.28;4952544;28;20059;-69
2022/12/19 03:20:53;;;;;;;45.55;24.17;;;;;;;1.21;97.81;101595.84;4951576;28;20047;-68
2022/12/19 03:23:20;;;;;;;50.17;23.90;;;;;;;1.20;97.71;101596.69;4936843;28;20051;-69
2022/12/19 03:25:55;;;;;;;51.13;25.27;;;;;;;1.22;97.71;101589.81;4951225;28;20099;-71
2022/12/19 03:28:35;;;;;;;49.47;24.55;;;;;;;1.24;97.64;101598.47;4952621;28;20055;-71
2022/12/19 03:31:05;;;;;;;49.13;24.50;;;;;;;1.27;97.50;101595.97;4949761;28;20044;-71
2022/12/19 03:33:34;;;;;;;54.40;25.48;;;;;;;1.25;97.69;101587.25;4952390;28;20043;-71
2022/12/19 03:36:09;;;;;;;48.90;24.80;;;;;;;1.24;97.78;101590.69;4951512;28;20048;-71
2022/12/19 03:38:39;;;;;;;53.67;26.02;;;;;;;1.24;97.92;101582.91;4950557;28;20121;-71
2022/12/19 03:41:12;;;;;;;51.90;24.98;;;;;;;1.24;98.23;101575.09;4951405;28;20047;-71
2022/12/19 03:43:43;;;;;;;55.20;25.25;;;;;;;1.26;98.05;101585.53;4950543;28;20047;-71
2022/12/19 03:46:23;;;;;;;50.83;25.77;;;;;;;1.26;98.20;101582.94;4950186;28;20130;-71
2022/12/19 03:48:53;;;;;;;47.83;25.00;;;;;;;1.27;98.22;101585.56;4943516;28;20048;-72
2022/12/19 03:51:36;;;;;;;50.25;25.10;;;;;;;1.28;98.29;101574.34;4951754;28;20040;-72
2022/12/19 03:54:19;;;;;;;49.40;24.73;;;;;;;1.30;98.60;101571.75;4945238;28;20044;-72
2022/12/19 03:56:52;;;;;;;49.95;25.42;;;;;;;1.27;98.59;101582.09;4951880;28;20505;-72
2022/12/19 03:59:40;;;;;;;52.30;25.17;;;;;;;1.27;98.74;101582.09;4951971;28;20116;-70
2022/12/19 04:02:08;;;;;;;56.20;24.83;;;;;;;1.32;98.95;101570.06;4951879;28;20046;-71
2022/12/19 04:04:43;;;;;;;55.67;26.00;;;;;;;1.35;99.02;101577.94;4952338;28;20134;-70
2022/12/19 04:07:13;;;;;;;54.67;25.55;;;;;;;1.37;99.15;101573.66;4951423;28;20040;-71
2022/12/19 04:09:44;;;;;;;59.50;26.58;;;;;;;1.40;99.35;101568.50;4951998;28;20800;-71
2022/12/19 04:12:17;;;;;;;59.88;26.00;;;;;;;1.39;99.51;101559.84;4949444;28;20788;-71
2022/12/19 04:14:48;;;;;;;60.50;26.35;;;;;;;1.45;99.60;101561.69;4951228;28;20040;-72
2022/12/19 04:17:46;;;;;;;56.92;26.50;;;;;;;1.50;99.79;101569.56;4950071;28;20051;-71
2022/12/19 04:20:21;;;;;;;56.42;25.38;;;;;;;1.54;99.77;101560.94;4937600;28;20549;-71
2022/12/19 04:23:05;;;;;;;59.83;26.42;;;;;;;1.60;100.00;101558.47;4948857;28;20099;-72
2022/12/19 04:25:39;;;;;;;60.00;25.73;;;;;;;1.63;100.00;101540.31;4950785;28;20127;-71
2022/12/19 04:28:17;;;;;;;63.25;25.42;;;;;;;1.69;100.00;101548.25;4945727;28;20044;-72
2022/12/19 04:30:47;;;;;;;63.92;26.42;;;;;;;1.74;100.00;101545.72;4939483;28;20133;-72
2022/12/19 04:33:14;;;;;;;61.50;26.73;;;;;;;1.77;100.00;101547.50;4942655;28;20972;-72
2022/12/19 04:35:41;;;;;;;60.20;26.48;;;;;;;1.81;100.00;101544.13;4950214;28;20043;-72
2022/12/19 04:38:08;;;;;;;57.42;26.65;;;;;;;1.81;100.00;101550.19;4953580;28;20055;-72
2022/12/19 04:40:36;;;;;;;56.75;25.63;;;;;;;1.84;100.00;101541.53;4928462;28;20052;-72
2022/12/19 04:43:08;;;;;;;66.43;27.25;;;;;;;1.87;100.00;101541.59;4953133;28;20044;-72
2022/12/19 04:45:35;;;;;;;65.20;27.02;;;;;;;1.88;100.00;101542.50;4949451;28;20103;-70
2022/12/19 04:48:03;;;;;;;59.97;26.15;;;;;;;1.91;100.00;101530.41;4946125;28;20047;-70
2022/12/19 04:50:33;;;;;;;61.38;25.73;;;;;;;1.92;100.00;101539.06;4954028;28;20047;-70
2022/12/19 04:53:00;;;;;;;67.47;25.63;;;;;;;1.96;100.00;101533.97;4956484;28;20039;-70
2022/12/19 04:55:27;;;;;;;65.10;25.98;;;;;;;2.00;100.00;101535.78;4948424;28;20040;-70
2022/12/19 04:57:54;;;;;;;54.10;25.73;;;;;;;2.05;100.00;101525.44;4949579;28;20144;-69
2022/12/19 05:00:33;;;;;;;69.10;27.02;;;;;;;2.09;100.00;101524.63;4956778;28;20036;-69
2022/12/19 05:03:01;;;;;;;67.95;27.95;;;;;;;2.13;100.00;101522.97;4948904;28;20063;-70
2022/12/19 05:05:28;;;;;;;65.32;26.98;;;;;;;2.15;100.00;101531.63;4953908;28;20115;-69
2022/12/19 05:07:56;;;;;;;55.88;24.50;;;;;;;2.19;100.00;101522.19;4947066;28;20086;-69
2022/12/19 05:10:23;;;;;;;57.80;25.85;;;;;;;2.21;100.00;101525.66;4949842;28;20043;-69
2022/12/19 05:12:52;;;;;;;63.95;26.13;;;;;;;2.24;100.00;101525.72;4950105;28;20051;-69
2022/12/19 05:15:20;;;;;;;65.50;26.35;;;;;;;2.28;100.00;101524.91;4938105;28;20044;-69
2022/12/19 05:17:47;;;;;;;61.90;26.08;;;;;;;2.27;100.00;101521.44;4943553;28;20044;-69
2022/12/19 05:20:15;;;;;;;66.38;26.58;;;;;;;2.30;100.00;101523.19;4954367;28;20044;-69
2022/12/19 05:22:42;;;;;;;64.88;26.13;;;;;;;2.32;100.00;101513.69;4944748;28;20510;-70
2022/12/19 05:25:10;;;;;;;58.33;25.17;;;;;;;2.36;100.00;101522.41;4954875;28;20150;-71
2022/12/19 05:27:37;;;;;;;59.70;24.92;;;;;;;2.38;100.00;101516.41;4946716;28;20060;-71
2022/12/19 05:30:05;;;;;;;57.28;25.33;;;;;;;2.42;100.00;101519.91;4937766;29;20203;-71
2022/12/19 05:32:38;;;;;;;62.80;25.23;;;;;;;2.47;100.00;101523.44;4943901;28;20044;-72
2022/12/19 05:35:06;;;;;;;62.72;25.85;;;;;;;2.49;100.00;101516.53;4938266;28;20149;-73
2022/12/19 05:37:34;;;;;;;63.45;26.85;;;;;;;2.50;100.00;101520.91;4943873;28;20119;-73
2022/12/19 05:40:01;;;;;;;64.30;25.63;;;;;;;2.54;100.00;101520.09;4942017;28;20047;-72
2022/12/19 05:42:28;;;;;;;65.35;30.35;;;;;;;2.60;100.00;101514.97;4941438;28;20056;-71
2022/12/19 05:44:55;;;;;;;53.78;28.70;;;;;;;2.72;100.00;101514.22;4932038;28;20128;-70
2022/12/19 05:47:22;;;;;;;54.60;27.02;;;;;;;2.84;100.00;101512.66;4940623;28;20062;-70
2022/12/19 05:49:50;;;;;;;60.75;29.42;;;;;;;2.95;100.00;101519.72;4943938;28;20040;-70
2022/12/19 05:52:17;;;;;;;67.68;30.33;;;;;;;3.02;100.00;101507.66;4942732;28;20964;-70
2022/12/19 05:54:45;;;;;;;30.10;18.25;;;;;;;3.08;100.00;101510.34;4922766;28;20049;-70
2022/12/19 05:57:12;;;;;;;50.92;26.02;;;;;;;3.29;100.00;101510.56;4942380;28;20494;-68
2022/12/19 05:59:41;;;;;;;48.45;24.00;;;;;;;3.36;100.00;101509.75;4919617;28;20269;-70
2022/12/19 06:02:08;;;;;;;40.80;22.95;;;;;;;3.39;100.00;101508.06;4931025;28;20067;-69
2022/12/19 06:04:35;;;;;;;46.47;23.38;;;;;;;3.40;100.00;101496.78;4943149;28;20083;-70
2022/12/19 06:07:04;;;;;;;39.88;21.52;;;;;;;3.42;100.00;101497.66;4940983;28;20036;-70
2022/12/19 06:09:31;;;;;;;46.38;22.02;;;;;;;3.46;100.00;101503.78;4940277;28;20055;-70
2022/12/19 06:11:58;;;;;;;41.13;20.45;;;;;;;3.48;100.00;101499.44;4938523;28;20124;-71
2022/12/19 06:14:25;;;;;;;35.35;18.50;;;;;;;3.55;100.00;101495.16;4931922;28;20044;-70
2022/12/19 06:16:52;;;;;;;37.42;20.23;;;;;;;3.67;100.00;101503.09;4934122;28;20048;-70
2022/12/19 06:19:20;;;;;;;36.13;19.10;;;;;;;3.75;100.00;101491.88;4934299;28;20052;-70
2022/12/19 06:21:47;;;;;;;33.50;18.27;;;;;;;3.81;100.00;101492.78;4935418;29;20531;-70
2022/12/19 06:24:15;;;;;;;30.88;17.45;;;;;;;3.85;100.00;101511.94;4932992;28;20054;-70
2022/12/19 06:26:44;;;;;;;32.65;18.35;;;;;;;3.91;100.00;101482.44;4933868;28;20116;-70
2022/12/19 06:29:11;;;;;;;36.00;19.00;;;;;;;3.92;100.00;101515.47;4942788;28;20099;-69
2022/12/19 06:31:40;;;;;;;32.85;17.73;;;;;;;3.89;100.00;101493.72;4957270;28;20812;-69
2022/12/19 06:34:11;;;;;;;38.83;19.08;;;;;;;3.88;100.00;101502.41;4957229;28;20043;-69
2022/12/19 06:36:59;;;;;;;32.13;18.20;;;;;;;3.86;100.00;101501.53;4961443;28;20043;-69
2022/12/19 06:39:32;;;;;;;36.60;17.95;;;;;;;3.88;100.00;101496.31;4942542;28;20048;-69
2022/12/19 06:44:45;;;;;;;35.65;18.20;;;;;;;3.91;100.00;101504.19;4942435;28;20040;-69
2022/12/19 06:47:12;;;;;;;37.00;18.08;;;;;;;3.95;100.00;101502.47;4942386;28;20048;-69
2022/12/19 06:49:39;;;;;;;33.90;17.90;;;;;;;3.98;100.00;101511.19;4942027;28;20046;-70
2022/12/19 06:52:06;;;;;;;39.13;19.58;;;;;;;4.02;100.00;101507.72;4936900;28;20051;-69
2022/12/19 06:54:35;;;;;;;33.60;17.48;;;;;;;4.07;100.00;101507.75;4952098;28;20056;-68
2022/12/19 06:57:02;;;;;;;30.20;16.55;;;;;;;4.11;100.00;101509.53;4940240;28;20045;-69
2022/12/19 06:59:29;;;;;;;35.08;17.00;;;;;;;4.15;100.00;101513.03;4949217;28;20148;-70
2022/12/19 07:02:28;;;;;;;31.77;15.48;;;;;;;4.21;100.00;101505.28;4950691;28;20039;-70
2022/12/19 07:05:02;;;;;;;34.58;15.90;;;;;;;4.24;100.00;101513.09;4952658;28;20087;-70
2022/12/19 07:07:30;;;;;;;31.65;15.38;;;;;;;4.29;100.00;101521.84;4948481;28;20071;-70
2022/12/19 07:09:58;;;;;;;28.25;14.63;;;;;;;4.33;100.00;101512.31;4950394;28;20746;-69
2022/12/19 07:12:25;;;;;;;25.85;13.55;;;;;;;4.41;100.00;101522.81;4952814;28;20044;-69
2022/12/19 07:14:52;;;;;;;26.27;13.07;;;;;;;4.47;100.00;101523.72;4952927;28;20052;-70
2022/12/19 07:17:23;;;;;;;24.20;13.27;;;;;;;4.55;100.00;101520.25;4951908;28;20052;-69
2022/12/19 07:19:54;;;;;;;25.20;12.52;;;;;;;4.60;100.00;101523.75;4939565;28;20095;-69
2022/12/19 07:22:28;;;;;;;23.05;11.95;;;;;;;4.68;100.00;101519.44;4950420;28;20055;-69
2022/12/19 07:24:56;;;;;;;21.75;12.40;;;;;;;4.75;100.00;101522.97;4945676;28;20047;-69
2022/12/19 07:27:23;;;;;;;26.05;12.77;;;;;;;4.82;100.00;101514.31;4952382;28;20067;-69
2022/12/19 07:29:59;;;;;;;20.33;11.57;;;;;;;4.90;100.00;101525.66;4953602;28;20789;-69
2022/12/19 07:32:27;;;;;;;18.00;11.13;;;;;;;4.99;100.00;101522.19;4954100;28;20071;-68
2022/12/19 07:34:54;;;;;;;24.33;11.13;;;;;;;5.10;100.00;101511.78;4953783;28;20503;-69
2022/12/19 07:37:21;;;;;;;24.27;11.40;;;;;;;5.15;100.00;101517.91;4938039;28;20525;-69
2022/12/19 07:39:48;;;;;;;21.40;11.35;;;;;;;5.22;100.00;101516.16;4953261;28;20044;-70
2022/12/19 07:42:18;;;;;;;23.35;11.90;;;;;;;5.28;100.00;101519.69;4954362;28;20044;-69
2022/12/19 07:44:45;;;;;;;21.70;11.05;;;;;;;5.31;100.00;101529.25;4948351;28;20052;-70
2022/12/19 07:47:12;;;;;;;22.27;11.57;;;;;;;5.35;100.00;101522.31;4952797;28;20051;-70
2022/12/19 07:49:39;;;;;;;23.92;12.00;;;;;;;5.39;100.00;101521.44;4953131;28;20048;-70
2022/12/19 07:52:07;;;;;;;20.73;11.20;;;;;;;5.44;100.00;101527.56;4954046;28;20036;-69
2022/12/19 07:54:34;;;;;;;19.88;10.90;;;;;;;5.46;100.00;101541.50;4952168;28;20047;-69
2022/12/19 07:57:02;;;;;;;21.60;10.55;;;;;;;5.51;100.00;101523.19;4952397;28;20107;-70
2022/12/19 07:59:30;;;;;;;18.50;10.40;;;;;;;5.54;100.00;101523.22;4952625;28;20039;-70
2022/12/19 08:02:05;;;;;;;20.25;11.15;;;;;;;5.57;100.00;101531.09;4953440;28;20046;-70
2022/12/19 08:04:34;;;;;;;25.23;14.15;;;;;;;5.58;100.00;101531.06;4953035;28;20442;-71
2022/12/19 08:07:01;;;;;;;21.70;14.10;;;;;;;5.60;100.00;101525.84;4937485;28;20040;-71
2022/12/19 08:09:29;;;;;;;21.27;12.43;;;;;;;5.63;100.00;101530.22;4952091;28;20470;-70
2022/12/19 08:11:57;;;;;;;20.80;12.63;;;;;;;5.63;100.00;101536.31;4945377;28;20052;-70
2022/12/19 08:14:25;;;;;;;21.13;12.27;;;;;;;5.65;100.00;101538.91;4944997;28;20044;-69
2022/12/19 08:16:52;;;;;;;20.42;12.55;;;;;;;5.65;100.00;101534.56;4937719;28;20036;-69
2022/12/19 08:19:39;;;;;;;21.10;11.38;;;;;;;5.69;100.00;101538.94;4950636;28;20127;-70
2022/12/19 08:22:06;;;;;;;21.00;12.55;;;;;;;5.70;100.00;101543.28;4935078;28;20071;-70
2022/12/19 08:24:33;;;;;;;21.73;12.52;;;;;;;5.71;100.00;101533.72;4949498;28;20194;-70
2022/12/19 08:27:01;;;;;;;17.13;11.77;;;;;;;5.73;100.00;101530.22;4951627;28;20867;-70
2022/12/19 08:29:29;;;;;;;21.70;11.55;;;;;;;5.74;100.00;101539.81;4951749;28;20110;-69
2022/12/19 08:31:56;;;;;;;15.90;10.07;;;;;;;5.77;100.00;101535.47;4932648;29;20478;-70
2022/12/19 08:34:24;;;;;;;18.02;11.27;;;;;;;5.78;100.00;101535.44;4932468;29;20128;-70
2022/12/19 08:36:51;;;;;;;18.08;10.35;;;;;;;5.82;100.00;101529.38;4933500;29;20044;-70
2022/12/19 08:39:18;;;;;;;15.60;10.82;;;;;;;5.85;100.00;101538.94;4947656;28;20044;-69
2022/12/19 08:41:45;;;;;;;19.20;11.40;;;;;;;5.90;100.00;101532.00;4952500;28;20522;-70
2022/12/19 08:44:12;;;;;;;14.35;9.63;;;;;;;5.90;100.00;101538.09;4952825;28;20048;-70
2022/12/19 08:46:40;;;;;;;17.05;10.40;;;;;;;5.90;100.00;101529.38;4952997;28;20078;-70
2022/12/19 08:49:17;;;;;;;13.45;8.98;;;;;;;5.93;100.00;101537.19;4952794;28;20047;-70
2022/12/19 08:51:45;;;;;;;16.95;10.48;;;;;;;5.97;100.00;101531.09;4952792;28;20067;-70
2022/12/19 08:54:12;;;;;;;15.10;9.15;;;;;;;5.97;100.00;101536.34;4952836;28;20046;-70
2022/12/19 08:56:40;;;;;;;14.35;9.05;;;;;;;6.00;100.00;101525.88;4952869;28;20048;-70
2022/12/19 08:59:14;;;;;;;13.85;9.20;;;;;;;6.04;100.00;101537.25;4952414;28;20040;-70
2022/12/19 09:01:56;;;;;;;12.70;8.50;;;;;;;6.06;100.00;101533.75;4952757;28;20092;-70
2022/12/19 09:04:26;;;;;;;15.27;8.10;;;;;;;6.10;100.00;101537.25;4952025;28;20333;-70
2022/12/19 09:07:14;;;;;;;12.88;7.70;;;;;;;6.10;100.00;101537.25;4951831;28;20048;-70
2022/12/19 09:09:43;;;;;;;12.38;7.63;;;;;;;6.12;100.00;101534.59;4950762;28;20099;-70
2022/12/19 09:12:14;;;;;;;11.20;7.35;;;;;;;6.16;100.00;101541.59;4952624;28;20131;-70
2022/12/19 09:14:43;;;;;;;15.77;8.13;;;;;;;6.16;100.00;101537.22;4952093;28;20051;-70
2022/12/19 09:17:10;;;;;;;11.40;7.90;;;;;;;6.18;100.00;101535.47;4952328;28;20048;-70
2022/12/19 09:19:38;;;;;;;12.25;7.68;;;;;;;6.22;100.00;101539.84;4954468;28;20051;-70
2022/12/19 09:22:11;;;;;;;13.43;8.00;;;;;;;6.25;100.00;101549.44;4955650;28;20524;-70
2022/12/19 09:24:38;;;;;;;12.75;7.78;;;;;;;6.28;100.00;101538.97;4954974;28;20111;-70
2022/12/19 09:27:05;;;;;;;12.57;7.28;;;;;;;6.33;100.00;101533.72;4954797;28;20063;-70
2022/12/19 09:29:32;;;;;;;13.93;7.53;;;;;;;6.37;100.00;101549.44;4938099;28;20047;-70
2022/12/19 09:32:02;;;;;;;12.90;7.35;;;;;;;6.43;100.00;101548.56;4955573;28;20046;-70
2022/12/19 09:34:29;;;;;;;12.90;7.65;;;;;;;6.45;100.00;101548.53;4955563;28;20065;-70
2022/12/19 09:37:07;;;;;;;14.13;7.70;;;;;;;6.49;100.00;101552.91;4954952;28;20046;-70
2022/12/19 09:39:36;;;;;;;15.45;7.82;;;;;;;6.50;100.00;101557.28;4968009;28;20040;-70
2022/12/19 09:42:51;;;;;;;9.55;7.00;;;;;;;6.51;100.00;101556.41;4955277;28;20103;-70
2022/12/19 09:45:51;;;;;;;14.47;7.27;;;;;;;6.53;100.00;101554.63;4955034;28;20075;-70
2022/12/19 09:48:19;;;;;;;11.27;7.50;;;;;;;6.55;100.00;101554.66;4955112;28;20040;-70
2022/12/19 09:51:02;;;;;;;12.65;7.20;;;;;;;6.63;100.00;101555.50;4954899;28;20067;-70
2022/12/19 09:54:25;;;;;;;11.48;6.78;;;;;;;6.70;100.00;101554.59;4948445;28;20191;-71
2022/12/19 09:57:00;;;;;;;10.90;6.90;;;;;;;6.74;100.00;101556.34;4926178;29;20060;-70
2022/12/19 09:59:40;;;;;;;12.93;7.18;;;;;;;6.81;100.00;101552.81;4935846;29;20040;-71
2022/12/19 10:02:52;;;;;;;11.35;6.45;;;;;;;6.90;100.00;101559.78;4935539;29;20048;-70
2022/12/19 10:05:44;;;;;;;9.85;6.70;;;;;;;6.94;100.00;101555.41;4939689;28;20463;-70
2022/12/19 10:08:38;;;;;;;11.35;6.78;;;;;;;7.00;100.00;101555.38;4954353;28;20507;-71
2022/12/19 10:11:56;;;;;;;11.55;6.43;;;;;;;7.07;100.00;101556.22;4955075;28;20123;-71
2022/12/19 10:15:27;;;;;;;12.07;6.30;;;;;;;7.14;100.00;101545.69;4952211;28;20176;-71
2022/12/19 10:18:23;;;;;;;10.35;6.47;;;;;;;7.20;100.00;101544.81;4942559;28;20979;-71
2022/12/19 10:21:11;;;;;;;9.90;6.22;;;;;;;7.27;100.00;101551.75;4952814;28;20490;-71
2022/12/19 10:23:54;;;;;;;10.40;6.00;;;;;;;7.30;100.00;101558.72;4955027;28;20061;-71
2022/12/19 10:26:41;;;;;;;13.65;6.07;;;;;;;7.36;100.00;101560.44;4954392;28;20066;-71
2022/12/19 10:29:17;;;;;;;10.90;6.10;;;;;;;7.37;100.00;101549.06;4954520;28;20819;-71
2022/12/19 10:31:54;;;;;;;11.40;6.25;;;;;;;7.38;100.00;101558.69;4954188;28;20138;-71
2022/12/19 10:34:31;;;;;;;10.05;6.13;;;;;;;7.41;100.00;101553.44;4954485;28;20048;-71
2022/12/19 10:37:19;;;;;;;12.23;5.75;;;;;;;7.45;100.00;101547.28;4935600;29;20075;-71
2022/12/19 10:40:19;;;;;;;8.25;5.55;;;;;;;7.49;100.00;101548.13;4935628;29;20115;-71
2022/12/19 10:43:51;;;;;;;9.05;5.55;;;;;;;7.53;100.00;101553.34;4935114;29;20044;-71
2022/12/19 10:46:36;;;;;;;7.60;5.18;;;;;;;7.56;100.00;101547.22;4935393;28;20070;-71
2022/12/19 10:49:13;;;;;;;9.52;5.60;;;;;;;7.58;100.00;101543.69;4954589;28;20047;-72
2022/12/19 10:51:54;;;;;;;10.20;5.75;;;;;;;7.60;100.00;101554.19;4954460;28;20514;-71
2022/12/19 10:54:22;;;;;;;9.85;5.45;;;;;;;7.62;100.00;101536.69;4953704;28;20546;-71
2022/12/19 10:57:27;;;;;;;8.35;5.32;;;;;;;7.66;100.00;101538.41;4954144;28;20127;-71
2022/12/19 11:00:05;;;;;;;8.35;5.65;;;;;;;7.66;100.00;101534.91;4954369;28;20051;-71
2022/12/19 11:02:46;;;;;;;10.35;5.32;;;;;;;7.67;100.00;101542.78;4952989;28;20036;-71
2022/12/19 11:05:24;;;;;;;7.70;4.85;;;;;;;7.69;100.00;101548.88;4954498;28;20048;-71
2022/12/19 11:08:06;;;;;;;8.68;4.88;;;;;;;7.74;100.00;101547.09;4954413;28;20123;-71
2022/12/19 11:10:47;;;;;;;8.80;5.18;;;;;;;7.78;100.00;101543.53;4954187;28;20106;-71
2022/12/19 11:13:34;;;;;;;23.10;15.70;;;;;;;7.81;100.00;101536.53;4935006;29;20044;-71
2022/12/19 11:16:35;;;;;;;24.27;16.20;;;;;;;7.85;100.00;101538.28;4951750;28;20044;-71
2022/12/19 11:19:35;;;;;;;10.65;6.72;;;;;;;7.86;100.00;101546.13;4953759;28;20043;-71
2022/12/19 11:22:31;;;;;;;13.25;8.23;;;;;;;7.90;100.00;101539.09;4953880;28;20050;-71
2022/12/19 11:25:35;;;;;;;8.77;7.10;;;;;;;7.95;100.00;101539.06;4953363;28;20109;-71
2022/12/19 11:28:36;;;;;;;8.82;7.30;;;;;;;7.99;100.00;101544.25;4953723;28;20043;-71
2022/12/19 11:31:27;;;;;;;11.98;8.65;;;;;;;8.01;100.00;101528.50;4953066;28;20047;-72
2022/12/19 11:34:20;;;;;;;9.30;7.20;;;;;;;8.02;99.94;101519.75;4952698;28;20040;-72
2022/12/19 11:37:12;;;;;;;63.90;40.83;;;;;;;8.05;100.00;101525.84;4943237;28;20052;-70
2022/12/19 11:39:46;;;;;;;39.97;25.58;;;;;;;8.04;100.00;101521.47;4953740;28;20048;-70
2022/12/19 11:42:19;;;;;;;10.07;8.15;;;;;;;8.08;100.00;101519.69;4951973;28;20044;-69
2022/12/19 11:45:02;;;;;;;9.32;6.28;;;;;;;8.12;100.00;101516.16;4953622;28;20050;-70
2022/12/19 11:48:15;;;;;;;13.55;10.85;;;;;;;8.13;100.00;101520.53;4952806;28;20047;-70
2022/12/19 11:51:13;;;;;;;11.35;9.48;;;;;;;8.14;100.00;101524.03;4953035;28;20486;-69
2022/12/19 11:54:00;;;;;;;12.70;9.38;;;;;;;8.14;100.00;101510.88;4946407;28;20047;-68
2022/12/19 11:56:28;;;;;;;14.20;11.02;;;;;;;8.12;100.00;101497.78;4952611;28;20051;-68
2022/12/19 11:59:16;;;;;;;7.35;5.03;;;;;;;8.17;100.00;101492.47;4948226;28;20036;-68